sensor_id;sensor_type;location;lat;lon;timestamp;P1;durP1;ratioP1;P2;durP2;ratioP2
44822;SDS011;51097;51.984;5.650;2023-12-07T00:01:16;22.42;;;13.70;;
44822;SDS011;51097;51.984;5.650;2023-12-07T00:03:41;25.45;;;16.17;;
44822;SDS011;51097;51.984;5.650;2023-12-07T00:06:07;24.10;;;14.05;;
44822;SDS011;51097;51.984;5.650;2023-12-07T00:08:32;22.27;;;14.40;;
44822;SDS011;51097;51.984;5.650;2023-12-07T00:10:58;19.85;;;13.52;;
44822;SDS011;51097;51.984;5.650;2023-12-07T00:13:24;21.83;;;13.57;;
44822;SDS011;51097;51.984;5.650;2023-12-07T00:15:49;20.58;;;14.70;;
44822;SDS011;51097;51.984;5.650;2023-12-07T00:18:15;24.80;;;15.10;;
44822;SDS011;51097;51.984;5.650;2023-12-07T00:20:40;24.05;;;14.27;;
44822;SDS011;51097;51.984;5.650;2023-12-07T00:23:06;24.92;;;13.60;;
44822;SDS011;51097;51.984;5.650;2023-12-07T00:25:31;28.73;;;13.65;;
44822;SDS011;51097;51.984;5.650;2023-12-07T00:27:57;20.77;;;14.05;;
44822;SDS011;51097;51.984;5.650;2023-12-07T00:30:23;21.05;;;13.85;;
44822;SDS011;51097;51.984;5.650;2023-12-07T00:32:48;23.33;;;13.95;;
44822;SDS011;51097;51.984;5.650;2023-12-07T00:35:14;25.95;;;16.15;;
44822;SDS011;51097;51.984;5.650;2023-12-07T00:37:41;22.88;;;14.27;;
44822;SDS011;51097;51.984;5.650;2023-12-07T00:40:06;26.88;;;14.20;;
44822;SDS011;51097;51.984;5.650;2023-12-07T00:42:32;23.23;;;13.93;;
44822;SDS011;51097;51.984;5.650;2023-12-07T00:44:59;22.08;;;13.60;;
44822;SDS011;51097;51.984;5.650;2023-12-07T00:47:25;21.10;;;14.15;;
44822;SDS011;51097;51.984;5.650;2023-12-07T00:49:50;24.73;;;14.52;;
44822;SDS011;51097;51.984;5.650;2023-12-07T00:52:16;20.52;;;13.40;;
44822;SDS011;51097;51.984;5.650;2023-12-07T00:54:42;26.23;;;14.98;;
44822;SDS011;51097;51.984;5.650;2023-12-07T00:57:07;19.98;;;14.07;;
44822;SDS011;51097;51.984;5.650;2023-12-07T00:59:33;23.77;;;13.38;;
44822;SDS011;51097;51.984;5.650;2023-12-07T01:02:08;24.50;;;14.18;;
44822;SDS011;51097;51.984;5.650;2023-12-07T01:04:33;17.95;;;12.77;;
44822;SDS011;51097;51.984;5.650;2023-12-07T01:06:59;22.30;;;14.57;;
44822;SDS011;51097;51.984;5.650;2023-12-07T01:09:25;21.35;;;13.90;;
44822;SDS011;51097;51.984;5.650;2023-12-07T01:11:51;24.00;;;13.80;;
44822;SDS011;51097;51.984;5.650;2023-12-07T01:14:17;18.98;;;13.15;;
44822;SDS011;51097;51.984;5.650;2023-12-07T01:16:43;21.88;;;13.25;;
44822;SDS011;51097;51.984;5.650;2023-12-07T01:19:09;22.60;;;13.45;;
44822;SDS011;51097;51.984;5.650;2023-12-07T01:21:38;19.23;;;12.80;;
44822;SDS011;51097;51.984;5.650;2023-12-07T01:24:04;20.33;;;13.05;;
44822;SDS011;51097;51.984;5.650;2023-12-07T01:26:30;17.17;;;11.85;;
44822;SDS011;51097;51.984;5.650;2023-12-07T01:28:55;20.63;;;13.05;;
44822;SDS011;51097;51.984;5.650;2023-12-07T01:31:21;25.33;;;14.38;;
44822;SDS011;51097;51.984;5.650;2023-12-07T01:33:46;21.00;;;13.32;;
44822;SDS011;51097;51.984;5.650;2023-12-07T01:36:12;17.75;;;13.15;;
44822;SDS011;51097;51.984;5.650;2023-12-07T01:38:38;20.67;;;13.40;;
44822;SDS011;51097;51.984;5.650;2023-12-07T01:41:03;17.60;;;12.80;;
44822;SDS011;51097;51.984;5.650;2023-12-07T01:43:29;19.10;;;12.88;;
44822;SDS011;51097;51.984;5.650;2023-12-07T01:45:55;18.23;;;11.57;;
44822;SDS011;51097;51.984;5.650;2023-12-07T01:48:22;20.02;;;13.68;;
44822;SDS011;51097;51.984;5.650;2023-12-07T01:50:51;19.98;;;11.82;;
44822;SDS011;51097;51.984;5.650;2023-12-07T01:53:18;20.10;;;12.80;;
44822;SDS011;51097;51.984;5.650;2023-12-07T01:55:46;22.00;;;12.43;;
44822;SDS011;51097;51.984;5.650;2023-12-07T01:58:12;19.25;;;12.07;;
44822;SDS011;51097;51.984;5.650;2023-12-07T02:00:39;20.52;;;11.75;;
44822;SDS011;51097;51.984;5.650;2023-12-07T02:03:05;20.60;;;12.35;;
44822;SDS011;51097;51.984;5.650;2023-12-07T02:05:31;15.57;;;11.95;;
44822;SDS011;51097;51.984;5.650;2023-12-07T02:07:57;21.30;;;13.27;;
44822;SDS011;51097;51.984;5.650;2023-12-07T02:10:23;24.50;;;14.55;;
44822;SDS011;51097;51.984;5.650;2023-12-07T02:12:49;17.45;;;12.57;;
44822;SDS011;51097;51.984;5.650;2023-12-07T02:15:16;19.92;;;13.50;;
44822;SDS011;51097;51.984;5.650;2023-12-07T02:20:17;22.88;;;14.65;;
44822;SDS011;51097;51.984;5.650;2023-12-07T02:22:51;22.60;;;13.82;;
44822;SDS011;51097;51.984;5.650;2023-12-07T02:25:21;27.95;;;15.88;;
44822;SDS011;51097;51.984;5.650;2023-12-07T02:27:51;24.88;;;14.07;;
44822;SDS011;51097;51.984;5.650;2023-12-07T02:30:16;21.90;;;14.48;;
44822;SDS011;51097;51.984;5.650;2023-12-07T02:32:43;21.00;;;14.70;;
44822;SDS011;51097;51.984;5.650;2023-12-07T02:35:10;27.15;;;14.50;;
44822;SDS011;51097;51.984;5.650;2023-12-07T02:37:44;28.65;;;15.65;;
44822;SDS011;51097;51.984;5.650;2023-12-07T02:40:11;19.48;;;13.80;;
44822;SDS011;51097;51.984;5.650;2023-12-07T02:42:40;19.52;;;14.35;;
44822;SDS011;51097;51.984;5.650;2023-12-07T02:45:08;21.77;;;13.65;;
44822;SDS011;51097;51.984;5.650;2023-12-07T02:47:34;25.63;;;15.65;;
44822;SDS011;51097;51.984;5.650;2023-12-07T02:50:00;21.20;;;13.90;;
44822;SDS011;51097;51.984;5.650;2023-12-07T02:52:25;22.50;;;15.10;;
44822;SDS011;51097;51.984;5.650;2023-12-07T02:54:51;22.50;;;15.55;;
44822;SDS011;51097;51.984;5.650;2023-12-07T02:57:17;24.38;;;15.73;;
44822;SDS011;51097;51.984;5.650;2023-12-07T02:59:42;21.63;;;15.10;;
44822;SDS011;51097;51.984;5.650;2023-12-07T03:02:08;23.52;;;14.57;;
44822;SDS011;51097;51.984;5.650;2023-12-07T03:04:33;24.88;;;15.80;;
44822;SDS011;51097;51.984;5.650;2023-12-07T03:06:59;18.92;;;14.18;;
44822;SDS011;51097;51.984;5.650;2023-12-07T03:09:24;20.95;;;13.50;;
44822;SDS011;51097;51.984;5.650;2023-12-07T03:11:50;19.33;;;13.63;;
44822;SDS011;51097;51.984;5.650;2023-12-07T03:14:16;24.60;;;14.77;;
44822;SDS011;51097;51.984;5.650;2023-12-07T03:16:41;17.75;;;13.57;;
44822;SDS011;51097;51.984;5.650;2023-12-07T03:19:07;19.23;;;13.45;;
44822;SDS011;51097;51.984;5.650;2023-12-07T03:21:33;19.60;;;15.00;;
44822;SDS011;51097;51.984;5.650;2023-12-07T03:23:58;19.35;;;12.52;;
44822;SDS011;51097;51.984;5.650;2023-12-07T03:26:24;16.45;;;11.85;;
44822;SDS011;51097;51.984;5.650;2023-12-07T03:28:49;19.58;;;13.43;;
44822;SDS011;51097;51.984;5.650;2023-12-07T03:31:15;22.33;;;13.50;;
44822;SDS011;51097;51.984;5.650;2023-12-07T03:33:41;17.00;;;13.18;;
44822;SDS011;51097;51.984;5.650;2023-12-07T03:36:10;22.98;;;14.85;;
44822;SDS011;51097;51.984;5.650;2023-12-07T03:38:36;18.95;;;11.75;;
44822;SDS011;51097;51.984;5.650;2023-12-07T03:41:01;22.73;;;14.57;;
44822;SDS011;51097;51.984;5.650;2023-12-07T03:43:27;19.35;;;13.32;;
44822;SDS011;51097;51.984;5.650;2023-12-07T03:45:52;19.75;;;13.60;;
44822;SDS011;51097;51.984;5.650;2023-12-07T03:48:18;21.48;;;14.82;;
44822;SDS011;51097;51.984;5.650;2023-12-07T03:50:44;22.85;;;14.95;;
44822;SDS011;51097;51.984;5.650;2023-12-07T03:53:09;19.15;;;14.25;;
44822;SDS011;51097;51.984;5.650;2023-12-07T03:55:35;22.95;;;14.77;;
44822;SDS011;51097;51.984;5.650;2023-12-07T03:58:01;21.60;;;15.07;;
44822;SDS011;51097;51.984;5.650;2023-12-07T04:00:27;22.10;;;15.68;;
44822;SDS011;51097;51.984;5.650;2023-12-07T04:02:53;20.27;;;15.25;;
44822;SDS011;51097;51.984;5.650;2023-12-07T04:05:18;19.55;;;14.10;;
44822;SDS011;51097;51.984;5.650;2023-12-07T04:07:44;19.95;;;14.73;;
44822;SDS011;51097;51.984;5.650;2023-12-07T04:10:09;20.92;;;15.20;;
44822;SDS011;51097;51.984;5.650;2023-12-07T04:12:35;22.33;;;14.75;;
44822;SDS011;51097;51.984;5.650;2023-12-07T04:15:01;23.13;;;15.40;;
44822;SDS011;51097;51.984;5.650;2023-12-07T04:17:26;25.48;;;16.42;;
44822;SDS011;51097;51.984;5.650;2023-12-07T04:19:52;23.27;;;15.85;;
44822;SDS011;51097;51.984;5.650;2023-12-07T04:22:17;19.95;;;15.38;;
44822;SDS011;51097;51.984;5.650;2023-12-07T04:24:43;24.95;;;16.88;;
44822;SDS011;51097;51.984;5.650;2023-12-07T04:27:09;20.63;;;14.52;;
44822;SDS011;51097;51.984;5.650;2023-12-07T04:29:35;20.23;;;15.70;;
44822;SDS011;51097;51.984;5.650;2023-12-07T04:32:01;20.05;;;13.85;;
44822;SDS011;51097;51.984;5.650;2023-12-07T04:34:27;21.50;;;15.35;;
44822;SDS011;51097;51.984;5.650;2023-12-07T04:36:52;21.65;;;15.88;;
44822;SDS011;51097;51.984;5.650;2023-12-07T04:39:18;26.02;;;16.00;;
44822;SDS011;51097;51.984;5.650;2023-12-07T04:41:44;22.70;;;17.08;;
44822;SDS011;51097;51.984;5.650;2023-12-07T04:44:09;24.20;;;17.08;;
44822;SDS011;51097;51.984;5.650;2023-12-07T04:46:35;25.58;;;18.02;;
44822;SDS011;51097;51.984;5.650;2023-12-07T04:49:01;43.65;;;21.70;;
44822;SDS011;51097;51.984;5.650;2023-12-07T04:51:26;33.85;;;20.05;;
44822;SDS011;51097;51.984;5.650;2023-12-07T04:53:52;38.88;;;20.25;;
44822;SDS011;51097;51.984;5.650;2023-12-07T04:56:17;48.00;;;21.67;;
44822;SDS011;51097;51.984;5.650;2023-12-07T04:58:43;51.40;;;21.20;;
44822;SDS011;51097;51.984;5.650;2023-12-07T05:01:09;43.35;;;21.30;;
44822;SDS011;51097;51.984;5.650;2023-12-07T05:03:34;52.00;;;21.92;;
44822;SDS011;51097;51.984;5.650;2023-12-07T05:06:00;60.20;;;21.92;;
44822;SDS011;51097;51.984;5.650;2023-12-07T05:08:25;56.95;;;20.35;;
44822;SDS011;51097;51.984;5.650;2023-12-07T05:10:51;40.60;;;20.40;;
44822;SDS011;51097;51.984;5.650;2023-12-07T05:13:17;59.50;;;20.95;;
44822;SDS011;51097;51.984;5.650;2023-12-07T05:15:42;48.63;;;19.98;;
44822;SDS011;51097;51.984;5.650;2023-12-07T05:18:08;63.42;;;20.25;;
44822;SDS011;51097;51.984;5.650;2023-12-07T05:20:34;56.90;;;21.17;;
44822;SDS011;51097;51.984;5.650;2023-12-07T05:23:01;63.80;;;22.02;;
44822;SDS011;51097;51.984;5.650;2023-12-07T05:25:26;51.00;;;21.15;;
44822;SDS011;51097;51.984;5.650;2023-12-07T05:27:52;44.17;;;18.70;;
44822;SDS011;51097;51.984;5.650;2023-12-07T05:30:17;52.22;;;19.88;;
44822;SDS011;51097;51.984;5.650;2023-12-07T05:32:43;51.78;;;20.25;;
44822;SDS011;51097;51.984;5.650;2023-12-07T05:35:08;38.40;;;19.42;;
44822;SDS011;51097;51.984;5.650;2023-12-07T05:37:34;53.95;;;21.95;;
44822;SDS011;51097;51.984;5.650;2023-12-07T05:39:59;46.38;;;20.77;;
44822;SDS011;51097;51.984;5.650;2023-12-07T05:42:25;48.75;;;20.55;;
44822;SDS011;51097;51.984;5.650;2023-12-07T05:44:51;49.28;;;20.17;;
44822;SDS011;51097;51.984;5.650;2023-12-07T05:47:17;48.08;;;20.65;;
44822;SDS011;51097;51.984;5.650;2023-12-07T05:49:42;50.80;;;19.92;;
44822;SDS011;51097;51.984;5.650;2023-12-07T05:52:08;51.78;;;20.25;;
44822;SDS011;51097;51.984;5.650;2023-12-07T05:54:33;41.95;;;19.67;;
44822;SDS011;51097;51.984;5.650;2023-12-07T05:56:59;56.83;;;20.52;;
44822;SDS011;51097;51.984;5.650;2023-12-07T05:59:24;55.47;;;20.80;;
44822;SDS011;51097;51.984;5.650;2023-12-07T06:01:53;48.65;;;20.08;;
44822;SDS011;51097;51.984;5.650;2023-12-07T06:04:19;44.05;;;18.92;;
44822;SDS011;51097;51.984;5.650;2023-12-07T06:06:45;48.17;;;20.92;;
44822;SDS011;51097;51.984;5.650;2023-12-07T06:09:10;51.75;;;19.55;;
44822;SDS011;51097;51.984;5.650;2023-12-07T06:11:36;39.47;;;19.77;;
44822;SDS011;51097;51.984;5.650;2023-12-07T06:14:01;47.75;;;19.48;;
44822;SDS011;51097;51.984;5.650;2023-12-07T06:16:27;46.92;;;19.23;;
44822;SDS011;51097;51.984;5.650;2023-12-07T06:18:53;44.38;;;19.30;;
44822;SDS011;51097;51.984;5.650;2023-12-07T06:21:18;42.50;;;18.08;;
44822;SDS011;51097;51.984;5.650;2023-12-07T06:23:45;45.67;;;20.52;;
44822;SDS011;51097;51.984;5.650;2023-12-07T06:26:11;58.20;;;21.30;;
44822;SDS011;51097;51.984;5.650;2023-12-07T06:28:37;41.83;;;20.98;;
44822;SDS011;51097;51.984;5.650;2023-12-07T06:31:06;44.83;;;19.38;;
44822;SDS011;51097;51.984;5.650;2023-12-07T06:33:32;53.13;;;21.52;;
44822;SDS011;51097;51.984;5.650;2023-12-07T06:35:59;64.43;;;21.30;;
44822;SDS011;51097;51.984;5.650;2023-12-07T06:38:25;65.13;;;18.95;;
44822;SDS011;51097;51.984;5.650;2023-12-07T06:40:51;47.53;;;18.95;;
44822;SDS011;51097;51.984;5.650;2023-12-07T06:43:16;52.83;;;18.08;;
44822;SDS011;51097;51.984;5.650;2023-12-07T06:45:42;49.25;;;17.05;;
44822;SDS011;51097;51.984;5.650;2023-12-07T06:48:08;32.75;;;15.63;;
44822;SDS011;51097;51.984;5.650;2023-12-07T06:50:33;48.53;;;16.83;;
44822;SDS011;51097;51.984;5.650;2023-12-07T06:52:59;42.15;;;17.13;;
44822;SDS011;51097;51.984;5.650;2023-12-07T06:55:24;37.67;;;17.42;;
44822;SDS011;51097;51.984;5.650;2023-12-07T06:57:50;45.70;;;16.50;;
44822;SDS011;51097;51.984;5.650;2023-12-07T07:00:16;34.65;;;17.33;;
44822;SDS011;51097;51.984;5.650;2023-12-07T07:02:43;63.20;;;17.58;;
44822;SDS011;51097;51.984;5.650;2023-12-07T07:05:08;41.70;;;16.00;;
44822;SDS011;51097;51.984;5.650;2023-12-07T07:07:36;53.22;;;19.23;;
44822;SDS011;51097;51.984;5.650;2023-12-07T07:10:02;46.75;;;17.50;;
44822;SDS011;51097;51.984;5.650;2023-12-07T07:12:27;40.05;;;17.20;;
44822;SDS011;51097;51.984;5.650;2023-12-07T07:14:54;34.47;;;19.30;;
44822;SDS011;51097;51.984;5.650;2023-12-07T07:17:20;38.97;;;17.75;;
44822;SDS011;51097;51.984;5.650;2023-12-07T07:19:45;44.33;;;18.77;;
44822;SDS011;51097;51.984;5.650;2023-12-07T07:22:11;40.17;;;16.70;;
44822;SDS011;51097;51.984;5.650;2023-12-07T07:24:36;26.25;;;16.17;;
44822;SDS011;51097;51.984;5.650;2023-12-07T07:27:02;47.05;;;18.23;;
44822;SDS011;51097;51.984;5.650;2023-12-07T07:29:31;36.45;;;17.38;;
44822;SDS011;51097;51.984;5.650;2023-12-07T07:31:57;40.28;;;17.67;;
44822;SDS011;51097;51.984;5.650;2023-12-07T07:34:22;47.83;;;18.63;;
44822;SDS011;51097;51.984;5.650;2023-12-07T07:36:50;45.35;;;19.95;;
44822;SDS011;51097;51.984;5.650;2023-12-07T07:39:15;42.22;;;19.50;;
44822;SDS011;51097;51.984;5.650;2023-12-07T07:41:41;30.88;;;17.17;;
44822;SDS011;51097;51.984;5.650;2023-12-07T07:44:06;38.78;;;19.23;;
44822;SDS011;51097;51.984;5.650;2023-12-07T07:46:32;38.65;;;18.35;;
44822;SDS011;51097;51.984;5.650;2023-12-07T07:48:58;41.42;;;17.30;;
44822;SDS011;51097;51.984;5.650;2023-12-07T07:51:23;27.38;;;16.25;;
44822;SDS011;51097;51.984;5.650;2023-12-07T07:53:49;37.83;;;18.98;;
44822;SDS011;51097;51.984;5.650;2023-12-07T07:56:14;34.42;;;16.65;;
44822;SDS011;51097;51.984;5.650;2023-12-07T07:58:40;40.38;;;18.42;;
44822;SDS011;51097;51.984;5.650;2023-12-07T08:01:05;43.80;;;18.55;;
44822;SDS011;51097;51.984;5.650;2023-12-07T08:03:31;38.13;;;17.67;;
44822;SDS011;51097;51.984;5.650;2023-12-07T08:05:57;50.05;;;17.65;;
44822;SDS011;51097;51.984;5.650;2023-12-07T08:08:22;40.53;;;17.13;;
44822;SDS011;51097;51.984;5.650;2023-12-07T08:10:51;40.65;;;17.20;;
44822;SDS011;51097;51.984;5.650;2023-12-07T08:13:16;40.85;;;17.63;;
44822;SDS011;51097;51.984;5.650;2023-12-07T08:15:42;39.03;;;17.08;;
44822;SDS011;51097;51.984;5.650;2023-12-07T08:18:07;36.55;;;17.52;;
44822;SDS011;51097;51.984;5.650;2023-12-07T08:20:34;32.97;;;17.25;;
44822;SDS011;51097;51.984;5.650;2023-12-07T08:22:59;50.42;;;18.15;;
44822;SDS011;51097;51.984;5.650;2023-12-07T08:25:25;41.97;;;17.80;;
44822;SDS011;51097;51.984;5.650;2023-12-07T08:27:51;43.03;;;20.05;;
44822;SDS011;51097;51.984;5.650;2023-12-07T08:30:19;39.58;;;18.88;;
44822;SDS011;51097;51.984;5.650;2023-12-07T08:32:45;42.65;;;19.58;;
44822;SDS011;51097;51.984;5.650;2023-12-07T08:35:10;43.65;;;18.52;;
44822;SDS011;51097;51.984;5.650;2023-12-07T08:37:39;34.33;;;18.48;;
44822;SDS011;51097;51.984;5.650;2023-12-07T08:40:05;50.40;;;19.08;;
44822;SDS011;51097;51.984;5.650;2023-12-07T08:42:31;43.58;;;18.90;;
44822;SDS011;51097;51.984;5.650;2023-12-07T08:44:57;42.67;;;18.63;;
44822;SDS011;51097;51.984;5.650;2023-12-07T08:47:23;47.92;;;19.08;;
44822;SDS011;51097;51.984;5.650;2023-12-07T08:49:50;35.65;;;18.58;;
44822;SDS011;51097;51.984;5.650;2023-12-07T08:52:16;29.30;;;16.70;;
44822;SDS011;51097;51.984;5.650;2023-12-07T08:54:42;30.77;;;16.90;;
44822;SDS011;51097;51.984;5.650;2023-12-07T08:57:08;33.67;;;16.83;;
44822;SDS011;51097;51.984;5.650;2023-12-07T08:59:34;37.47;;;17.23;;
44822;SDS011;51097;51.984;5.650;2023-12-07T09:01:59;37.10;;;17.10;;
44822;SDS011;51097;51.984;5.650;2023-12-07T09:04:25;36.28;;;17.25;;
44822;SDS011;51097;51.984;5.650;2023-12-07T09:06:51;43.17;;;17.60;;
44822;SDS011;51097;51.984;5.650;2023-12-07T09:09:17;32.80;;;14.98;;
44822;SDS011;51097;51.984;5.650;2023-12-07T09:11:42;37.38;;;17.20;;
44822;SDS011;51097;51.984;5.650;2023-12-07T09:14:08;42.00;;;16.52;;
44822;SDS011;51097;51.984;5.650;2023-12-07T09:16:33;43.45;;;17.98;;
44822;SDS011;51097;51.984;5.650;2023-12-07T09:18:59;46.88;;;18.38;;
44822;SDS011;51097;51.984;5.650;2023-12-07T09:21:25;35.22;;;16.88;;
44822;SDS011;51097;51.984;5.650;2023-12-07T09:23:51;30.20;;;16.27;;
44822;SDS011;51097;51.984;5.650;2023-12-07T09:26:17;36.33;;;15.82;;
44822;SDS011;51097;51.984;5.650;2023-12-07T09:28:43;26.30;;;13.65;;
44822;SDS011;51097;51.984;5.650;2023-12-07T09:31:08;27.50;;;12.95;;
44822;SDS011;51097;51.984;5.650;2023-12-07T09:33:34;30.23;;;13.40;;
44822;SDS011;51097;51.984;5.650;2023-12-07T09:35:59;26.23;;;12.05;;
44822;SDS011;51097;51.984;5.650;2023-12-07T09:38:25;29.08;;;13.13;;
44822;SDS011;51097;51.984;5.650;2023-12-07T09:40:53;31.20;;;13.13;;
44822;SDS011;51097;51.984;5.650;2023-12-07T09:43:20;26.10;;;13.10;;
44822;SDS011;51097;51.984;5.650;2023-12-07T09:45:45;29.23;;;13.25;;
44822;SDS011;51097;51.984;5.650;2023-12-07T09:48:12;23.05;;;11.80;;
44822;SDS011;51097;51.984;5.650;2023-12-07T09:50:38;21.88;;;11.93;;
44822;SDS011;51097;51.984;5.650;2023-12-07T09:53:04;23.95;;;10.75;;
44822;SDS011;51097;51.984;5.650;2023-12-07T09:55:32;22.15;;;11.40;;
44822;SDS011;51097;51.984;5.650;2023-12-07T09:57:58;22.55;;;9.23;;
44822;SDS011;51097;51.984;5.650;2023-12-07T10:00:24;24.65;;;10.80;;
44822;SDS011;51097;51.984;5.650;2023-12-07T10:02:50;22.20;;;10.60;;
44822;SDS011;51097;51.984;5.650;2023-12-07T10:05:16;20.65;;;10.82;;
44822;SDS011;51097;51.984;5.650;2023-12-07T10:07:43;21.45;;;10.73;;
44822;SDS011;51097;51.984;5.650;2023-12-07T10:10:09;19.30;;;9.48;;
44822;SDS011;51097;51.984;5.650;2023-12-07T10:12:40;21.42;;;10.23;;
44822;SDS011;51097;51.984;5.650;2023-12-07T10:15:12;23.23;;;9.77;;
44822;SDS011;51097;51.984;5.650;2023-12-07T10:17:57;22.25;;;9.85;;
44822;SDS011;51097;51.984;5.650;2023-12-07T10:20:25;20.30;;;10.10;;
44822;SDS011;51097;51.984;5.650;2023-12-07T10:23:01;21.90;;;9.80;;
44822;SDS011;51097;51.984;5.650;2023-12-07T10:25:32;22.75;;;10.85;;
44822;SDS011;51097;51.984;5.650;2023-12-07T10:28:00;21.77;;;10.07;;
44822;SDS011;51097;51.984;5.650;2023-12-07T10:30:27;25.60;;;9.65;;
44822;SDS011;51097;51.984;5.650;2023-12-07T10:32:52;26.98;;;10.85;;
44822;SDS011;51097;51.984;5.650;2023-12-07T10:35:18;27.23;;;11.95;;
44822;SDS011;51097;51.984;5.650;2023-12-07T10:37:45;22.73;;;11.93;;
44822;SDS011;51097;51.984;5.650;2023-12-07T10:40:12;25.35;;;11.70;;
44822;SDS011;51097;51.984;5.650;2023-12-07T10:42:37;24.83;;;12.82;;
44822;SDS011;51097;51.984;5.650;2023-12-07T10:45:06;28.55;;;12.82;;
44822;SDS011;51097;51.984;5.650;2023-12-07T10:47:36;22.00;;;10.80;;
44822;SDS011;51097;51.984;5.650;2023-12-07T10:52:36;29.42;;;12.02;;
44822;SDS011;51097;51.984;5.650;2023-12-07T10:55:21;26.33;;;11.30;;
44822;SDS011;51097;51.984;5.650;2023-12-07T10:57:52;31.08;;;12.75;;
44822;SDS011;51097;51.984;5.650;2023-12-07T11:00:18;30.38;;;13.68;;
44822;SDS011;51097;51.984;5.650;2023-12-07T11:02:44;37.42;;;15.13;;
44822;SDS011;51097;51.984;5.650;2023-12-07T11:05:11;32.08;;;15.85;;
44822;SDS011;51097;51.984;5.650;2023-12-07T11:07:41;34.33;;;13.90;;
44822;SDS011;51097;51.984;5.650;2023-12-07T11:10:20;29.85;;;14.43;;
44822;SDS011;51097;51.984;5.650;2023-12-07T11:12:58;33.80;;;14.75;;
44822;SDS011;51097;51.984;5.650;2023-12-07T11:15:34;32.40;;;16.02;;
44822;SDS011;51097;51.984;5.650;2023-12-07T11:18:01;32.42;;;14.45;;
44822;SDS011;51097;51.984;5.650;2023-12-07T11:20:43;34.80;;;15.50;;
44822;SDS011;51097;51.984;5.650;2023-12-07T11:23:17;45.83;;;18.77;;
44822;SDS011;51097;51.984;5.650;2023-12-07T11:25:43;38.00;;;16.05;;
44822;SDS011;51097;51.984;5.650;2023-12-07T11:28:10;37.40;;;16.35;;
44822;SDS011;51097;51.984;5.650;2023-12-07T11:30:37;33.00;;;16.35;;
44822;SDS011;51097;51.984;5.650;2023-12-07T11:33:03;33.78;;;16.80;;
44822;SDS011;51097;51.984;5.650;2023-12-07T11:35:30;36.22;;;17.30;;
44822;SDS011;51097;51.984;5.650;2023-12-07T11:38:06;35.28;;;16.35;;
44822;SDS011;51097;51.984;5.650;2023-12-07T11:40:51;35.90;;;16.67;;
44822;SDS011;51097;51.984;5.650;2023-12-07T11:43:17;36.28;;;16.40;;
44822;SDS011;51097;51.984;5.650;2023-12-07T11:46:01;36.17;;;17.30;;
44822;SDS011;51097;51.984;5.650;2023-12-07T11:48:27;35.10;;;16.30;;
44822;SDS011;51097;51.984;5.650;2023-12-07T11:53:29;31.80;;;16.77;;
44822;SDS011;51097;51.984;5.650;2023-12-07T11:55:57;34.45;;;17.50;;
44822;SDS011;51097;51.984;5.650;2023-12-07T11:58:27;37.72;;;19.65;;
44822;SDS011;51097;51.984;5.650;2023-12-07T12:03:21;32.63;;;16.38;;
44822;SDS011;51097;51.984;5.650;2023-12-07T12:05:48;35.92;;;17.02;;
44822;SDS011;51097;51.984;5.650;2023-12-07T12:08:13;40.22;;;18.67;;
44822;SDS011;51097;51.984;5.650;2023-12-07T12:10:40;36.95;;;16.67;;
44822;SDS011;51097;51.984;5.650;2023-12-07T12:13:07;33.70;;;18.30;;
44822;SDS011;51097;51.984;5.650;2023-12-07T12:15:33;38.83;;;18.25;;
44822;SDS011;51097;51.984;5.650;2023-12-07T12:17:59;36.00;;;19.33;;
44822;SDS011;51097;51.984;5.650;2023-12-07T12:20:26;37.03;;;17.85;;
44822;SDS011;51097;51.984;5.650;2023-12-07T12:22:52;33.35;;;16.83;;
44822;SDS011;51097;51.984;5.650;2023-12-07T12:25:21;40.97;;;19.25;;
44822;SDS011;51097;51.984;5.650;2023-12-07T12:30:20;36.92;;;17.30;;
44822;SDS011;51097;51.984;5.650;2023-12-07T12:32:47;38.92;;;17.45;;
44822;SDS011;51097;51.984;5.650;2023-12-07T12:35:13;40.33;;;17.40;;
44822;SDS011;51097;51.984;5.650;2023-12-07T12:37:42;39.60;;;19.13;;
44822;SDS011;51097;51.984;5.650;2023-12-07T12:40:12;42.78;;;21.08;;
44822;SDS011;51097;51.984;5.650;2023-12-07T12:42:46;37.03;;;19.60;;
44822;SDS011;51097;51.984;5.650;2023-12-07T12:45:13;44.55;;;20.17;;
44822;SDS011;51097;51.984;5.650;2023-12-07T12:47:42;41.50;;;21.67;;
44822;SDS011;51097;51.984;5.650;2023-12-07T12:50:09;43.37;;;20.50;;
44822;SDS011;51097;51.984;5.650;2023-12-07T12:52:36;42.90;;;20.52;;
44822;SDS011;51097;51.984;5.650;2023-12-07T12:55:06;46.15;;;21.25;;
44822;SDS011;51097;51.984;5.650;2023-12-07T12:57:33;46.57;;;22.33;;
44822;SDS011;51097;51.984;5.650;2023-12-07T13:00:01;42.60;;;23.13;;
44822;SDS011;51097;51.984;5.650;2023-12-07T13:02:27;52.45;;;23.35;;
44822;SDS011;51097;51.984;5.650;2023-12-07T13:04:53;39.63;;;19.92;;
44822;SDS011;51097;51.984;5.650;2023-12-07T13:07:19;41.85;;;22.35;;
44822;SDS011;51097;51.984;5.650;2023-12-07T13:09:44;45.83;;;22.52;;
44822;SDS011;51097;51.984;5.650;2023-12-07T13:12:10;44.92;;;22.92;;
44822;SDS011;51097;51.984;5.650;2023-12-07T13:14:36;41.63;;;21.27;;
44822;SDS011;51097;51.984;5.650;2023-12-07T13:17:03;42.00;;;22.83;;
44822;SDS011;51097;51.984;5.650;2023-12-07T13:19:29;47.13;;;21.63;;
44822;SDS011;51097;51.984;5.650;2023-12-07T13:21:55;44.03;;;21.75;;
44822;SDS011;51097;51.984;5.650;2023-12-07T13:24:21;45.70;;;22.92;;
44822;SDS011;51097;51.984;5.650;2023-12-07T13:26:46;44.53;;;21.05;;
44822;SDS011;51097;51.984;5.650;2023-12-07T13:29:12;44.20;;;22.50;;
44822;SDS011;51097;51.984;5.650;2023-12-07T13:31:38;44.78;;;23.08;;
44822;SDS011;51097;51.984;5.650;2023-12-07T13:34:03;44.45;;;22.42;;
44822;SDS011;51097;51.984;5.650;2023-12-07T13:36:29;46.20;;;22.90;;
44822;SDS011;51097;51.984;5.650;2023-12-07T13:38:56;47.92;;;21.88;;
44822;SDS011;51097;51.984;5.650;2023-12-07T13:41:22;51.33;;;23.55;;
44822;SDS011;51097;51.984;5.650;2023-12-07T13:43:48;46.85;;;22.20;;
44822;SDS011;51097;51.984;5.650;2023-12-07T13:46:15;43.40;;;22.92;;
44822;SDS011;51097;51.984;5.650;2023-12-07T13:48:41;54.35;;;23.23;;
44822;SDS011;51097;51.984;5.650;2023-12-07T13:51:07;44.85;;;22.23;;
44822;SDS011;51097;51.984;5.650;2023-12-07T13:53:33;38.15;;;19.73;;
44822;SDS011;51097;51.984;5.650;2023-12-07T13:55:59;45.25;;;20.02;;
44822;SDS011;51097;51.984;5.650;2023-12-07T13:58:25;37.83;;;19.33;;
44822;SDS011;51097;51.984;5.650;2023-12-07T14:00:51;44.55;;;21.20;;
44822;SDS011;51097;51.984;5.650;2023-12-07T14:03:16;41.50;;;22.15;;
44822;SDS011;51097;51.984;5.650;2023-12-07T14:05:42;50.70;;;22.42;;
44822;SDS011;51097;51.984;5.650;2023-12-07T14:08:08;42.92;;;22.92;;
44822;SDS011;51097;51.984;5.650;2023-12-07T14:10:33;46.63;;;22.23;;
44822;SDS011;51097;51.984;5.650;2023-12-07T14:12:59;45.28;;;21.15;;
44822;SDS011;51097;51.984;5.650;2023-12-07T14:15:25;45.13;;;23.98;;
44822;SDS011;51097;51.984;5.650;2023-12-07T14:17:51;52.28;;;23.80;;
44822;SDS011;51097;51.984;5.650;2023-12-07T14:20:17;51.60;;;23.75;;
44822;SDS011;51097;51.984;5.650;2023-12-07T14:22:42;55.97;;;25.13;;
44822;SDS011;51097;51.984;5.650;2023-12-07T14:25:09;54.95;;;25.63;;
44822;SDS011;51097;51.984;5.650;2023-12-07T14:27:35;53.80;;;24.40;;
44822;SDS011;51097;51.984;5.650;2023-12-07T14:30:01;61.03;;;26.80;;